Terminal Aerodrome Forecast
Issued by NWS

Current Version | Previous Version | Text Only | Print | Product List | Glossary Off
Versions: 1 2 3 4 5 6 7 8 9 10 11 12 13 14 15 16 17 18

000
FTUS41 KPBZ 181041 AAB
TAFMGW
TAF AMD
KMGW 181041Z 1811/1906 00000KT 2SM -RA BR SCT012 OVC020
      TEMPO 1811/1812 BKN012
     FM181200 20003KT P6SM BKN010
     FM181800 24008KT P6SM -SHRA VCTS BKN040CB
     FM190000 25005KT P6SM BKN200=

USA.gov is the U.S. government's official web portal to all federal, state and local government web resources and services.